createdAt,value
2023-04-24T00:02:12.300Z,5.88
2023-04-24T00:10:20.482Z,4.85
2023-04-24T00:18:26.084Z,5.88
2023-04-24T00:26:34.216Z,5.38
2023-04-24T00:34:39.725Z,5.40
2023-04-24T00:42:48.258Z,4.97
2023-04-24T00:50:53.995Z,4.95
2023-04-24T00:59:02.747Z,4.93
2023-04-24T01:07:11.835Z,5.38
2023-04-24T01:15:22.863Z,4.80
2023-04-24T01:23:31.196Z,5.10
2023-04-24T01:31:37.193Z,4.70
2023-04-24T01:39:45.575Z,4.32
2023-04-24T01:47:51.710Z,4.72
2023-04-24T01:55:59.822Z,4.85
2023-04-24T02:04:05.422Z,5.10
2023-04-24T02:12:13.632Z,5.22
2023-04-24T02:20:19.086Z,5.30
2023-04-24T02:28:27.226Z,5.22
2023-04-24T02:36:32.863Z,5.18
2023-04-24T02:44:42.091Z,4.97
2023-04-24T02:52:47.680Z,5.38
2023-04-24T03:00:58.295Z,5.30
2023-04-24T03:09:04.753Z,5.95
2023-04-24T03:17:13.655Z,6.88
2023-04-24T03:25:19.246Z,6.22
2023-04-24T03:33:27.656Z,5.95
2023-04-24T03:41:38.974Z,5.57
2023-04-24T03:49:58.434Z,7.00
2023-04-24T03:58:04.004Z,7.50
2023-04-24T04:06:14.255Z,7.95
2023-04-24T04:14:20.353Z,8.10
2023-04-24T04:22:29.851Z,8.32
2023-04-24T04:30:39.514Z,8.65
2023-04-24T04:38:47.995Z,7.97
2023-04-24T04:47:06.720Z,8.68
2023-04-24T04:55:17.817Z,8.07
2023-04-24T05:03:42.218Z,9.73
2023-04-24T05:11:53.923Z,9.60
2023-04-24T05:20:01.915Z,9.45
2023-04-24T05:28:11.804Z,9.02
2023-04-24T05:36:17.847Z,11.40
2023-04-24T05:44:27.037Z,10.45
2023-04-24T05:52:32.522Z,9.32
2023-04-24T06:00:44.642Z,10.02
2023-04-24T06:08:51.249Z,10.25
2023-04-24T06:16:59.869Z,6.97
2023-04-24T06:25:14.453Z,6.05
2023-04-24T06:33:23.892Z,3.40
2023-04-24T06:41:29.695Z,3.58
2023-04-24T06:49:38.057Z,3.40
2023-04-24T06:57:43.893Z,4.05
2023-04-24T07:05:54.542Z,3.47
2023-04-24T07:14:00.166Z,3.58
2023-04-24T07:22:08.248Z,4.35
2023-04-24T07:30:15.095Z,4.30
2023-04-24T07:38:27.180Z,4.15
2023-04-24T07:46:34.320Z,3.70
2023-04-24T07:54:42.710Z,4.22
2023-04-24T08:02:48.465Z,3.67
2023-04-24T08:10:56.763Z,3.70
2023-04-24T08:19:04.034Z,3.50
2023-04-24T08:27:12.804Z,4.20
2023-04-24T08:35:18.320Z,3.80
2023-04-24T08:43:27.135Z,3.00
2023-04-24T08:51:35.095Z,4.07
2023-04-24T08:59:44.144Z,3.20
2023-04-24T09:07:53.533Z,3.20
2023-04-24T09:16:01.909Z,3.70
2023-04-24T09:24:09.812Z,3.42
2023-04-24T09:32:31.199Z,3.58
2023-04-24T09:40:41.098Z,3.53
2023-04-24T09:48:49.837Z,4.28
2023-04-24T09:56:56.417Z,3.85
2023-04-24T10:05:04.683Z,3.58
2023-04-24T10:13:11.786Z,3.13
2023-04-24T10:21:20.704Z,4.07
2023-04-24T11:30:05.006Z,3.20
2023-04-24T11:46:25.280Z,3.38
2023-04-24T11:54:31.156Z,3.22
2023-04-24T12:02:40.200Z,3.25
2023-04-24T12:10:46.225Z,3.25
2023-04-24T12:18:56.045Z,3.40
2023-04-24T12:27:02.811Z,3.03
2023-04-24T12:35:11.763Z,3.25
2023-04-24T12:43:19.559Z,3.03
2023-04-24T12:51:28.902Z,3.35
2023-04-24T12:59:34.321Z,3.30
2023-04-24T13:07:42.402Z,3.03
2023-04-24T13:15:47.816Z,3.70
2023-04-24T13:23:55.881Z,3.50
2023-04-24T13:32:01.476Z,3.22
2023-04-24T13:40:10.829Z,4.28
2023-04-24T13:48:16.670Z,4.85
2023-04-24T13:56:25.186Z,4.88
2023-04-24T14:04:30.742Z,5.90
2023-04-24T14:12:39.112Z,6.15
2023-04-24T14:20:44.625Z,7.00
2023-04-24T14:28:58.171Z,4.60
2023-04-24T14:37:13.688Z,4.97
2023-04-24T14:45:21.997Z,5.60
2023-04-24T14:53:27.397Z,4.30
2023-04-24T15:01:36.036Z,4.30
2023-04-24T15:09:41.469Z,3.22
2023-04-24T15:17:49.561Z,13.18
2023-04-24T15:25:55.432Z,4.70
2023-04-24T15:34:18.520Z,4.90
2023-04-24T15:42:25.155Z,4.50
2023-04-24T15:50:35.762Z,6.40
2023-04-24T15:58:41.554Z,4.78
2023-04-24T16:06:49.627Z,4.85
2023-04-24T16:14:55.116Z,5.15
2023-04-24T16:23:03.280Z,5.18
2023-04-24T16:31:13.581Z,4.65
2023-04-24T16:39:28.192Z,4.85
2023-04-24T16:47:33.915Z,5.40
2023-04-24T16:55:42.737Z,4.82
2023-04-24T17:03:50.737Z,4.97
2023-04-24T17:11:59.832Z,5.43
2023-04-24T17:20:20.727Z,6.22
2023-04-24T17:28:31.608Z,5.53
2023-04-24T17:36:38.750Z,5.40
2023-04-24T17:44:47.644Z,6.30
2023-04-24T17:52:53.596Z,5.72
2023-04-24T18:01:01.739Z,6.75
2023-04-24T18:09:07.367Z,5.65
2023-04-24T18:17:15.494Z,5.22
2023-04-24T18:25:27.090Z,4.85
2023-04-24T18:33:35.414Z,5.35
2023-04-24T18:41:41.036Z,4.82
2023-04-24T18:49:49.146Z,5.18
2023-04-24T18:57:54.886Z,6.15
2023-04-24T19:06:02.996Z,5.60
2023-04-24T19:14:08.852Z,6.15
2023-04-24T19:22:16.978Z,5.63
2023-04-24T19:30:22.493Z,5.50
2023-04-24T19:38:30.956Z,4.75
2023-04-24T19:46:36.583Z,5.78
2023-04-24T19:54:44.892Z,5.32
2023-04-24T20:02:50.514Z,5.18
2023-04-24T20:10:58.775Z,5.72
2023-04-24T20:19:04.260Z,5.82
2023-04-24T20:27:14.094Z,5.90
2023-04-24T20:35:19.643Z,6.20
2023-04-24T20:43:29.460Z,6.78
2023-04-24T20:51:35.784Z,6.85
2023-04-24T20:59:44.097Z,7.45
2023-04-24T21:07:54.212Z,7.18
2023-04-24T21:16:02.935Z,6.22
2023-04-24T21:24:09.111Z,7.22
2023-04-24T21:32:17.319Z,7.70
2023-04-24T21:40:23.305Z,7.30
2023-04-24T21:48:31.598Z,7.90
2023-04-24T21:56:37.183Z,8.88
2023-04-24T22:04:45.594Z,10.73
2023-04-24T22:12:51.441Z,10.27
2023-04-24T22:21:01.374Z,26.33
2023-04-24T22:29:07.077Z,23.38
2023-04-24T22:37:15.288Z,19.08
2023-04-24T22:45:23.876Z,12.50
2023-04-24T22:53:32.022Z,9.23
2023-04-24T23:01:37.477Z,11.35
2023-04-24T23:09:45.827Z,12.05
2023-04-24T23:17:51.500Z,12.00
2023-04-24T23:26:00.284Z,13.77
2023-04-24T23:34:05.820Z,12.40
2023-04-24T23:42:14.083Z,13.30
2023-04-24T23:50:19.777Z,14.30
2023-04-24T23:58:27.929Z,14.63
